sensor_id;sensor_type;location;lat;lon;timestamp;P1;durP1;ratioP1;P2;durP2;ratioP2
80567;SDS011;69922;45.656;25.586;2023-11-19T00:01:05;3.10;;;2.60;;
80567;SDS011;69922;45.656;25.586;2023-11-19T00:02:31;3.70;;;2.50;;
80567;SDS011;69922;45.656;25.586;2023-11-19T00:03:38;3.20;;;2.90;;
80567;SDS011;69922;45.656;25.586;2023-11-19T00:04:44;4.00;;;2.50;;
80567;SDS011;69922;45.656;25.586;2023-11-19T00:05:50;3.60;;;2.70;;
80567;SDS011;69922;45.656;25.586;2023-11-19T00:06:56;2.90;;;2.60;;
80567;SDS011;69922;45.656;25.586;2023-11-19T00:08:07;3.40;;;2.50;;
80567;SDS011;69922;45.656;25.586;2023-11-19T00:09:13;3.00;;;2.60;;
80567;SDS011;69922;45.656;25.586;2023-11-19T00:10:21;2.90;;;2.30;;
80567;SDS011;69922;45.656;25.586;2023-11-19T00:11:27;2.60;;;2.20;;
80567;SDS011;69922;45.656;25.586;2023-11-19T00:12:34;2.00;;;1.60;;
80567;SDS011;69922;45.656;25.586;2023-11-19T00:13:40;3.10;;;2.50;;
80567;SDS011;69922;45.656;25.586;2023-11-19T00:14:46;3.40;;;2.10;;
80567;SDS011;69922;45.656;25.586;2023-11-19T00:15:53;2.30;;;1.90;;
80567;SDS011;69922;45.656;25.586;2023-11-19T00:16:59;2.00;;;1.80;;
80567;SDS011;69922;45.656;25.586;2023-11-19T00:18:05;2.40;;;2.10;;
80567;SDS011;69922;45.656;25.586;2023-11-19T00:19:12;3.00;;;2.20;;
80567;SDS011;69922;45.656;25.586;2023-11-19T00:20:18;3.90;;;2.20;;
80567;SDS011;69922;45.656;25.586;2023-11-19T00:21:26;2.40;;;2.10;;
80567;SDS011;69922;45.656;25.586;2023-11-19T00:22:33;3.40;;;2.30;;
80567;SDS011;69922;45.656;25.586;2023-11-19T00:23:39;2.60;;;2.20;;
80567;SDS011;69922;45.656;25.586;2023-11-19T00:24:45;2.60;;;2.20;;
80567;SDS011;69922;45.656;25.586;2023-11-19T00:25:52;2.50;;;2.30;;
80567;SDS011;69922;45.656;25.586;2023-11-19T00:26:58;2.90;;;2.50;;
80567;SDS011;69922;45.656;25.586;2023-11-19T00:28:05;2.90;;;2.50;;
80567;SDS011;69922;45.656;25.586;2023-11-19T00:29:11;2.50;;;2.30;;
80567;SDS011;69922;45.656;25.586;2023-11-19T00:30:18;3.20;;;2.90;;
80567;SDS011;69922;45.656;25.586;2023-11-19T00:31:24;3.30;;;2.40;;
80567;SDS011;69922;45.656;25.586;2023-11-19T00:32:32;3.80;;;3.30;;
80567;SDS011;69922;45.656;25.586;2023-11-19T00:33:38;2.90;;;2.50;;
80567;SDS011;69922;45.656;25.586;2023-11-19T00:34:47;2.50;;;2.30;;
80567;SDS011;69922;45.656;25.586;2023-11-19T00:35:53;2.90;;;2.70;;
80567;SDS011;69922;45.656;25.586;2023-11-19T00:37:00;3.20;;;2.80;;
80567;SDS011;69922;45.656;25.586;2023-11-19T00:38:08;3.30;;;2.90;;
80567;SDS011;69922;45.656;25.586;2023-11-19T00:39:14;3.40;;;2.90;;
80567;SDS011;69922;45.656;25.586;2023-11-19T00:40:20;3.00;;;2.60;;
80567;SDS011;69922;45.656;25.586;2023-11-19T00:41:27;3.60;;;3.20;;
80567;SDS011;69922;45.656;25.586;2023-11-19T00:42:33;4.50;;;3.10;;
80567;SDS011;69922;45.656;25.586;2023-11-19T00:43:40;3.30;;;2.90;;
80567;SDS011;69922;45.656;25.586;2023-11-19T00:44:46;3.70;;;3.00;;
80567;SDS011;69922;45.656;25.586;2023-11-19T00:45:55;4.00;;;3.10;;
80567;SDS011;69922;45.656;25.586;2023-11-19T00:47:01;2.90;;;2.60;;
80567;SDS011;69922;45.656;25.586;2023-11-19T00:48:07;3.30;;;2.80;;
80567;SDS011;69922;45.656;25.586;2023-11-19T00:49:14;4.00;;;2.80;;
80567;SDS011;69922;45.656;25.586;2023-11-19T00:50:20;3.70;;;3.00;;
80567;SDS011;69922;45.656;25.586;2023-11-19T00:51:27;4.40;;;3.00;;
80567;SDS011;69922;45.656;25.586;2023-11-19T00:52:35;3.70;;;3.10;;
80567;SDS011;69922;45.656;25.586;2023-11-19T00:53:42;3.80;;;3.00;;
80567;SDS011;69922;45.656;25.586;2023-11-19T00:54:48;4.80;;;3.30;;
80567;SDS011;69922;45.656;25.586;2023-11-19T00:55:55;4.50;;;3.50;;
80567;SDS011;69922;45.656;25.586;2023-11-19T00:57:01;4.10;;;3.00;;
80567;SDS011;69922;45.656;25.586;2023-11-19T00:58:08;4.30;;;3.80;;
80567;SDS011;69922;45.656;25.586;2023-11-19T00:59:14;4.20;;;3.30;;
80567;SDS011;69922;45.656;25.586;2023-11-19T01:00:20;4.50;;;3.70;;
80567;SDS011;69922;45.656;25.586;2023-11-19T01:01:28;5.40;;;3.20;;
80567;SDS011;69922;45.656;25.586;2023-11-19T01:02:35;4.50;;;3.60;;
80567;SDS011;69922;45.656;25.586;2023-11-19T01:03:41;3.80;;;3.20;;
80567;SDS011;69922;45.656;25.586;2023-11-19T01:04:48;5.30;;;3.00;;
80567;SDS011;69922;45.656;25.586;2023-11-19T01:05:55;6.30;;;3.20;;
80567;SDS011;69922;45.656;25.586;2023-11-19T01:07:03;4.90;;;3.60;;
80567;SDS011;69922;45.656;25.586;2023-11-19T01:08:10;4.60;;;3.50;;
80567;SDS011;69922;45.656;25.586;2023-11-19T01:09:16;5.40;;;3.80;;
80567;SDS011;69922;45.656;25.586;2023-11-19T01:10:23;4.60;;;3.20;;
80567;SDS011;69922;45.656;25.586;2023-11-19T01:11:30;5.20;;;3.60;;
80567;SDS011;69922;45.656;25.586;2023-11-19T01:12:36;3.60;;;3.10;;
80567;SDS011;69922;45.656;25.586;2023-11-19T01:13:42;5.10;;;3.20;;
80567;SDS011;69922;45.656;25.586;2023-11-19T01:14:50;4.00;;;3.50;;
80567;SDS011;69922;45.656;25.586;2023-11-19T01:15:57;3.70;;;2.90;;
80567;SDS011;69922;45.656;25.586;2023-11-19T01:17:03;5.00;;;3.70;;
80567;SDS011;69922;45.656;25.586;2023-11-19T01:18:10;4.60;;;3.50;;
80567;SDS011;69922;45.656;25.586;2023-11-19T01:19:17;4.20;;;3.50;;
80567;SDS011;69922;45.656;25.586;2023-11-19T01:20:23;4.40;;;3.50;;
80567;SDS011;69922;45.656;25.586;2023-11-19T01:21:30;3.50;;;3.20;;
80567;SDS011;69922;45.656;25.586;2023-11-19T01:22:36;4.00;;;3.60;;
80567;SDS011;69922;45.656;25.586;2023-11-19T01:23:42;4.40;;;3.60;;
80567;SDS011;69922;45.656;25.586;2023-11-19T01:24:49;5.30;;;3.50;;
80567;SDS011;69922;45.656;25.586;2023-11-19T01:25:56;4.10;;;3.70;;
80567;SDS011;69922;45.656;25.586;2023-11-19T01:27:03;5.80;;;4.10;;
80567;SDS011;69922;45.656;25.586;2023-11-19T01:28:09;4.80;;;3.70;;
80567;SDS011;69922;45.656;25.586;2023-11-19T01:29:16;4.50;;;4.10;;
80567;SDS011;69922;45.656;25.586;2023-11-19T01:30:24;4.60;;;3.60;;
80567;SDS011;69922;45.656;25.586;2023-11-19T01:31:30;4.40;;;3.50;;
80567;SDS011;69922;45.656;25.586;2023-11-19T01:32:38;5.30;;;3.90;;
80567;SDS011;69922;45.656;25.586;2023-11-19T01:33:45;4.00;;;3.10;;
80567;SDS011;69922;45.656;25.586;2023-11-19T01:34:51;4.40;;;3.70;;
80567;SDS011;69922;45.656;25.586;2023-11-19T01:35:58;4.80;;;3.90;;
80567;SDS011;69922;45.656;25.586;2023-11-19T01:37:04;4.80;;;3.80;;
80567;SDS011;69922;45.656;25.586;2023-11-19T01:38:10;4.30;;;3.70;;
80567;SDS011;69922;45.656;25.586;2023-11-19T01:39:16;4.10;;;3.30;;
80567;SDS011;69922;45.656;25.586;2023-11-19T01:40:24;4.90;;;3.90;;
80567;SDS011;69922;45.656;25.586;2023-11-19T01:41:31;4.40;;;3.50;;
80567;SDS011;69922;45.656;25.586;2023-11-19T01:42:40;3.80;;;3.40;;
80567;SDS011;69922;45.656;25.586;2023-11-19T01:43:46;4.90;;;3.60;;
80567;SDS011;69922;45.656;25.586;2023-11-19T01:44:57;5.00;;;4.30;;
80567;SDS011;69922;45.656;25.586;2023-11-19T01:46:05;4.40;;;3.40;;
80567;SDS011;69922;45.656;25.586;2023-11-19T01:47:15;3.10;;;2.80;;
80567;SDS011;69922;45.656;25.586;2023-11-19T01:48:22;3.70;;;3.10;;
80567;SDS011;69922;45.656;25.586;2023-11-19T01:49:29;4.20;;;3.30;;
80567;SDS011;69922;45.656;25.586;2023-11-19T01:50:37;4.50;;;3.80;;
80567;SDS011;69922;45.656;25.586;2023-11-19T01:51:44;4.80;;;3.80;;
80567;SDS011;69922;45.656;25.586;2023-11-19T01:52:51;4.50;;;3.60;;
80567;SDS011;69922;45.656;25.586;2023-11-19T01:53:58;5.20;;;4.50;;
80567;SDS011;69922;45.656;25.586;2023-11-19T01:55:07;5.60;;;4.00;;
80567;SDS011;69922;45.656;25.586;2023-11-19T01:56:14;5.10;;;4.00;;
80567;SDS011;69922;45.656;25.586;2023-11-19T01:57:22;3.70;;;3.00;;
80567;SDS011;69922;45.656;25.586;2023-11-19T01:58:28;4.50;;;3.80;;
80567;SDS011;69922;45.656;25.586;2023-11-19T01:59:35;4.90;;;3.80;;
80567;SDS011;69922;45.656;25.586;2023-11-19T02:00:42;4.70;;;3.60;;
80567;SDS011;69922;45.656;25.586;2023-11-19T02:01:50;4.40;;;3.20;;
80567;SDS011;69922;45.656;25.586;2023-11-19T02:03:04;5.20;;;3.80;;
80567;SDS011;69922;45.656;25.586;2023-11-19T02:04:12;4.80;;;3.60;;
80567;SDS011;69922;45.656;25.586;2023-11-19T02:05:19;5.10;;;3.90;;
80567;SDS011;69922;45.656;25.586;2023-11-19T02:06:25;4.30;;;3.70;;
80567;SDS011;69922;45.656;25.586;2023-11-19T02:07:32;3.50;;;3.20;;
80567;SDS011;69922;45.656;25.586;2023-11-19T02:08:38;4.10;;;3.40;;
80567;SDS011;69922;45.656;25.586;2023-11-19T02:09:45;4.70;;;3.70;;
80567;SDS011;69922;45.656;25.586;2023-11-19T02:10:52;4.60;;;3.40;;
80567;SDS011;69922;45.656;25.586;2023-11-19T02:12:01;4.80;;;4.10;;
80567;SDS011;69922;45.656;25.586;2023-11-19T02:13:08;4.10;;;3.70;;
80567;SDS011;69922;45.656;25.586;2023-11-19T02:14:15;4.40;;;3.60;;
80567;SDS011;69922;45.656;25.586;2023-11-19T02:15:22;4.50;;;4.00;;
80567;SDS011;69922;45.656;25.586;2023-11-19T02:16:28;4.60;;;3.40;;
80567;SDS011;69922;45.656;25.586;2023-11-19T02:17:35;4.60;;;3.60;;
80567;SDS011;69922;45.656;25.586;2023-11-19T02:18:42;5.00;;;3.70;;
80567;SDS011;69922;45.656;25.586;2023-11-19T02:19:49;4.30;;;3.90;;
80567;SDS011;69922;45.656;25.586;2023-11-19T02:20:55;3.30;;;3.00;;
80567;SDS011;69922;45.656;25.586;2023-11-19T02:22:02;3.20;;;2.90;;
80567;SDS011;69922;45.656;25.586;2023-11-19T02:23:09;4.80;;;3.40;;
80567;SDS011;69922;45.656;25.586;2023-11-19T02:24:17;4.00;;;3.30;;
80567;SDS011;69922;45.656;25.586;2023-11-19T02:25:28;3.40;;;3.00;;
80567;SDS011;69922;45.656;25.586;2023-11-19T02:26:39;3.50;;;3.20;;
80567;SDS011;69922;45.656;25.586;2023-11-19T02:27:53;3.40;;;3.00;;
80567;SDS011;69922;45.656;25.586;2023-11-19T02:29:02;4.60;;;3.70;;
80567;SDS011;69922;45.656;25.586;2023-11-19T02:30:13;4.40;;;3.40;;
80567;SDS011;69922;45.656;25.586;2023-11-19T02:31:19;4.70;;;3.80;;
80567;SDS011;69922;45.656;25.586;2023-11-19T02:32:28;4.10;;;3.30;;
80567;SDS011;69922;45.656;25.586;2023-11-19T02:33:35;3.50;;;3.20;;
80567;SDS011;69922;45.656;25.586;2023-11-19T02:34:41;4.80;;;3.50;;
80567;SDS011;69922;45.656;25.586;2023-11-19T02:35:48;4.10;;;3.20;;
80567;SDS011;69922;45.656;25.586;2023-11-19T02:36:54;3.80;;;2.80;;
80567;SDS011;69922;45.656;25.586;2023-11-19T02:38:01;3.10;;;2.80;;
80567;SDS011;69922;45.656;25.586;2023-11-19T02:39:11;3.20;;;2.90;;
80567;SDS011;69922;45.656;25.586;2023-11-19T02:40:17;4.70;;;3.20;;
80567;SDS011;69922;45.656;25.586;2023-11-19T02:41:24;4.00;;;3.60;;
80567;SDS011;69922;45.656;25.586;2023-11-19T02:42:30;3.90;;;3.30;;
80567;SDS011;69922;45.656;25.586;2023-11-19T02:43:36;3.60;;;3.00;;
80567;SDS011;69922;45.656;25.586;2023-11-19T02:44:45;4.20;;;3.60;;
80567;SDS011;69922;45.656;25.586;2023-11-19T02:45:52;5.00;;;3.60;;
80567;SDS011;69922;45.656;25.586;2023-11-19T02:47:00;3.50;;;3.00;;
80567;SDS011;69922;45.656;25.586;2023-11-19T02:48:08;3.70;;;3.30;;
80567;SDS011;69922;45.656;25.586;2023-11-19T02:49:14;3.40;;;2.80;;
80567;SDS011;69922;45.656;25.586;2023-11-19T02:50:21;4.70;;;3.50;;
80567;SDS011;69922;45.656;25.586;2023-11-19T02:51:30;5.10;;;3.50;;
80567;SDS011;69922;45.656;25.586;2023-11-19T02:52:37;3.70;;;3.30;;
80567;SDS011;69922;45.656;25.586;2023-11-19T02:53:43;4.10;;;3.00;;
80567;SDS011;69922;45.656;25.586;2023-11-19T02:54:52;3.60;;;3.10;;
80567;SDS011;69922;45.656;25.586;2023-11-19T02:56:00;3.30;;;2.90;;
80567;SDS011;69922;45.656;25.586;2023-11-19T02:57:19;3.70;;;3.30;;
80567;SDS011;69922;45.656;25.586;2023-11-19T02:58:27;4.40;;;3.20;;
80567;SDS011;69922;45.656;25.586;2023-11-19T02:59:33;3.40;;;3.10;;
80567;SDS011;69922;45.656;25.586;2023-11-19T03:00:43;3.60;;;3.10;;
80567;SDS011;69922;45.656;25.586;2023-11-19T03:02:01;4.20;;;3.60;;
80567;SDS011;69922;45.656;25.586;2023-11-19T03:03:08;4.10;;;3.20;;
80567;SDS011;69922;45.656;25.586;2023-11-19T03:04:23;3.90;;;2.90;;
80567;SDS011;69922;45.656;25.586;2023-11-19T03:05:30;4.10;;;3.40;;
80567;SDS011;69922;45.656;25.586;2023-11-19T03:06:36;4.00;;;3.20;;
80567;SDS011;69922;45.656;25.586;2023-11-19T03:07:43;4.70;;;3.60;;
80567;SDS011;69922;45.656;25.586;2023-11-19T03:08:50;4.80;;;2.70;;
80567;SDS011;69922;45.656;25.586;2023-11-19T03:09:56;4.10;;;3.30;;
80567;SDS011;69922;45.656;25.586;2023-11-19T03:11:04;3.20;;;2.90;;
80567;SDS011;69922;45.656;25.586;2023-11-19T03:12:10;3.90;;;2.70;;
80567;SDS011;69922;45.656;25.586;2023-11-19T03:13:16;4.10;;;3.10;;
80567;SDS011;69922;45.656;25.586;2023-11-19T03:14:23;3.50;;;3.00;;
80567;SDS011;69922;45.656;25.586;2023-11-19T03:15:30;4.20;;;3.20;;
80567;SDS011;69922;45.656;25.586;2023-11-19T03:16:36;4.10;;;3.20;;
80567;SDS011;69922;45.656;25.586;2023-11-19T03:17:42;4.10;;;3.10;;
80567;SDS011;69922;45.656;25.586;2023-11-19T03:18:48;4.70;;;3.10;;
80567;SDS011;69922;45.656;25.586;2023-11-19T03:19:55;5.30;;;3.40;;
80567;SDS011;69922;45.656;25.586;2023-11-19T03:21:01;5.50;;;3.60;;
80567;SDS011;69922;45.656;25.586;2023-11-19T03:22:07;5.40;;;3.70;;
80567;SDS011;69922;45.656;25.586;2023-11-19T03:23:15;4.30;;;3.30;;
80567;SDS011;69922;45.656;25.586;2023-11-19T03:24:21;4.10;;;3.70;;
80567;SDS011;69922;45.656;25.586;2023-11-19T03:25:29;3.40;;;2.90;;
80567;SDS011;69922;45.656;25.586;2023-11-19T03:26:37;3.70;;;2.30;;
80567;SDS011;69922;45.656;25.586;2023-11-19T03:27:44;4.60;;;3.00;;
80567;SDS011;69922;45.656;25.586;2023-11-19T03:28:49;4.20;;;3.00;;
80567;SDS011;69922;45.656;25.586;2023-11-19T03:29:56;4.50;;;3.10;;
80567;SDS011;69922;45.656;25.586;2023-11-19T03:31:02;4.60;;;3.10;;
80567;SDS011;69922;45.656;25.586;2023-11-19T03:32:13;3.40;;;2.80;;
80567;SDS011;69922;45.656;25.586;2023-11-19T03:33:19;4.70;;;3.70;;
80567;SDS011;69922;45.656;25.586;2023-11-19T03:34:26;3.10;;;2.70;;
80567;SDS011;69922;45.656;25.586;2023-11-19T03:35:32;3.80;;;3.20;;
80567;SDS011;69922;45.656;25.586;2023-11-19T03:36:38;4.40;;;3.00;;
80567;SDS011;69922;45.656;25.586;2023-11-19T03:37:45;4.10;;;3.30;;
80567;SDS011;69922;45.656;25.586;2023-11-19T03:38:51;4.30;;;3.20;;
80567;SDS011;69922;45.656;25.586;2023-11-19T03:39:58;5.30;;;3.70;;
80567;SDS011;69922;45.656;25.586;2023-11-19T03:41:11;5.80;;;3.40;;
80567;SDS011;69922;45.656;25.586;2023-11-19T03:42:18;4.70;;;3.80;;
80567;SDS011;69922;45.656;25.586;2023-11-19T03:43:24;3.90;;;3.30;;
80567;SDS011;69922;45.656;25.586;2023-11-19T03:44:31;4.30;;;3.10;;
80567;SDS011;69922;45.656;25.586;2023-11-19T03:45:38;4.60;;;3.00;;
80567;SDS011;69922;45.656;25.586;2023-11-19T03:46:46;3.50;;;2.90;;
80567;SDS011;69922;45.656;25.586;2023-11-19T03:47:53;7.80;;;4.80;;
80567;SDS011;69922;45.656;25.586;2023-11-19T03:49:00;3.80;;;2.90;;
80567;SDS011;69922;45.656;25.586;2023-11-19T03:50:08;3.30;;;2.80;;
80567;SDS011;69922;45.656;25.586;2023-11-19T03:51:15;5.40;;;3.10;;
80567;SDS011;69922;45.656;25.586;2023-11-19T03:52:21;4.50;;;3.10;;
80567;SDS011;69922;45.656;25.586;2023-11-19T03:53:28;4.00;;;3.10;;
80567;SDS011;69922;45.656;25.586;2023-11-19T03:54:35;3.60;;;2.80;;
80567;SDS011;69922;45.656;25.586;2023-11-19T03:55:41;4.60;;;3.20;;
80567;SDS011;69922;45.656;25.586;2023-11-19T03:56:47;3.80;;;3.20;;
80567;SDS011;69922;45.656;25.586;2023-11-19T03:57:53;4.10;;;3.50;;
80567;SDS011;69922;45.656;25.586;2023-11-19T03:58:59;3.70;;;3.00;;
80567;SDS011;69922;45.656;25.586;2023-11-19T04:00:07;3.60;;;2.80;;
80567;SDS011;69922;45.656;25.586;2023-11-19T04:01:17;4.30;;;3.20;;
80567;SDS011;69922;45.656;25.586;2023-11-19T04:02:24;4.00;;;3.30;;
80567;SDS011;69922;45.656;25.586;2023-11-19T04:03:33;4.40;;;3.40;;
80567;SDS011;69922;45.656;25.586;2023-11-19T04:04:40;4.00;;;3.10;;
80567;SDS011;69922;45.656;25.586;2023-11-19T04:05:47;3.00;;;2.70;;
80567;SDS011;69922;45.656;25.586;2023-11-19T04:06:53;3.40;;;2.90;;
80567;SDS011;69922;45.656;25.586;2023-11-19T04:07:59;4.30;;;3.20;;
80567;SDS011;69922;45.656;25.586;2023-11-19T04:09:06;3.90;;;2.70;;
80567;SDS011;69922;45.656;25.586;2023-11-19T04:10:12;3.30;;;2.50;;
80567;SDS011;69922;45.656;25.586;2023-11-19T04:11:20;4.60;;;2.90;;
80567;SDS011;69922;45.656;25.586;2023-11-19T04:12:27;3.50;;;2.70;;
80567;SDS011;69922;45.656;25.586;2023-11-19T04:13:33;3.40;;;3.00;;
80567;SDS011;69922;45.656;25.586;2023-11-19T04:14:39;4.10;;;3.10;;
80567;SDS011;69922;45.656;25.586;2023-11-19T04:15:45;3.40;;;3.10;;
80567;SDS011;69922;45.656;25.586;2023-11-19T04:16:53;5.00;;;3.20;;
80567;SDS011;69922;45.656;25.586;2023-11-19T04:18:00;5.40;;;3.30;;
80567;SDS011;69922;45.656;25.586;2023-11-19T04:19:06;4.60;;;3.10;;
80567;SDS011;69922;45.656;25.586;2023-11-19T04:20:12;4.30;;;3.10;;
80567;SDS011;69922;45.656;25.586;2023-11-19T04:21:20;4.70;;;3.00;;
80567;SDS011;69922;45.656;25.586;2023-11-19T04:22:27;4.40;;;3.00;;
80567;SDS011;69922;45.656;25.586;2023-11-19T04:23:34;2.90;;;2.50;;
80567;SDS011;69922;45.656;25.586;2023-11-19T04:24:41;4.50;;;3.20;;
80567;SDS011;69922;45.656;25.586;2023-11-19T04:25:50;3.10;;;2.70;;
80567;SDS011;69922;45.656;25.586;2023-11-19T04:26:56;4.30;;;3.20;;
80567;SDS011;69922;45.656;25.586;2023-11-19T04:28:03;3.90;;;3.20;;
80567;SDS011;69922;45.656;25.586;2023-11-19T04:29:10;4.10;;;2.60;;
80567;SDS011;69922;45.656;25.586;2023-11-19T04:31:23;3.30;;;2.90;;
80567;SDS011;69922;45.656;25.586;2023-11-19T04:32:33;3.50;;;2.70;;
80567;SDS011;69922;45.656;25.586;2023-11-19T04:33:39;3.20;;;2.90;;
80567;SDS011;69922;45.656;25.586;2023-11-19T04:34:46;4.20;;;3.00;;
80567;SDS011;69922;45.656;25.586;2023-11-19T04:35:52;3.80;;;2.50;;
80567;SDS011;69922;45.656;25.586;2023-11-19T04:36:58;3.50;;;3.00;;
80567;SDS011;69922;45.656;25.586;2023-11-19T04:38:11;3.70;;;2.60;;
80567;SDS011;69922;45.656;25.586;2023-11-19T04:39:18;3.30;;;3.00;;
80567;SDS011;69922;45.656;25.586;2023-11-19T04:40:25;3.80;;;3.40;;
80567;SDS011;69922;45.656;25.586;2023-11-19T04:41:32;3.40;;;3.10;;
80567;SDS011;69922;45.656;25.586;2023-11-19T04:42:38;4.70;;;3.10;;
80567;SDS011;69922;45.656;25.586;2023-11-19T04:43:44;3.90;;;3.00;;
80567;SDS011;69922;45.656;25.586;2023-11-19T04:44:51;4.40;;;3.20;;
80567;SDS011;69922;45.656;25.586;2023-11-19T04:45:57;3.90;;;2.50;;
80567;SDS011;69922;45.656;25.586;2023-11-19T04:47:07;4.70;;;2.80;;
80567;SDS011;69922;45.656;25.586;2023-11-19T04:48:15;4.40;;;3.10;;
80567;SDS011;69922;45.656;25.586;2023-11-19T04:49:22;3.60;;;2.80;;
80567;SDS011;69922;45.656;25.586;2023-11-19T04:51:39;4.40;;;2.50;;
80567;SDS011;69922;45.656;25.586;2023-11-19T04:52:46;3.30;;;2.80;;
80567;SDS011;69922;45.656;25.586;2023-11-19T04:53:52;3.40;;;2.70;;
80567;SDS011;69922;45.656;25.586;2023-11-19T04:54:59;4.00;;;3.10;;
80567;SDS011;69922;45.656;25.586;2023-11-19T04:56:09;4.40;;;3.30;;
80567;SDS011;69922;45.656;25.586;2023-11-19T04:57:16;3.80;;;2.80;;
80567;SDS011;69922;45.656;25.586;2023-11-19T04:58:22;4.70;;;3.40;;
80567;SDS011;69922;45.656;25.586;2023-11-19T04:59:29;4.70;;;3.30;;
80567;SDS011;69922;45.656;25.586;2023-11-19T05:00:35;5.40;;;3.20;;
80567;SDS011;69922;45.656;25.586;2023-11-19T05:01:45;3.60;;;2.90;;
80567;SDS011;69922;45.656;25.586;2023-11-19T05:02:52;4.10;;;2.90;;
80567;SDS011;69922;45.656;25.586;2023-11-19T05:03:59;6.20;;;3.40;;
80567;SDS011;69922;45.656;25.586;2023-11-19T05:05:06;3.60;;;2.90;;
80567;SDS011;69922;45.656;25.586;2023-11-19T05:06:14;4.00;;;3.20;;
80567;SDS011;69922;45.656;25.586;2023-11-19T05:07:20;4.10;;;3.20;;
80567;SDS011;69922;45.656;25.586;2023-11-19T05:08:26;3.60;;;3.20;;
80567;SDS011;69922;45.656;25.586;2023-11-19T05:09:33;6.00;;;2.60;;
80567;SDS011;69922;45.656;25.586;2023-11-19T05:10:39;4.20;;;3.10;;
80567;SDS011;69922;45.656;25.586;2023-11-19T05:11:46;4.20;;;3.00;;
80567;SDS011;69922;45.656;25.586;2023-11-19T05:12:56;3.90;;;2.70;;
80567;SDS011;69922;45.656;25.586;2023-11-19T05:14:03;3.90;;;3.00;;
80567;SDS011;69922;45.656;25.586;2023-11-19T05:15:11;4.80;;;3.30;;
80567;SDS011;69922;45.656;25.586;2023-11-19T05:16:18;3.90;;;3.00;;
80567;SDS011;69922;45.656;25.586;2023-11-19T05:17:25;3.30;;;3.00;;
80567;SDS011;69922;45.656;25.586;2023-11-19T05:18:32;4.30;;;3.40;;
80567;SDS011;69922;45.656;25.586;2023-11-19T05:19:38;3.80;;;3.20;;
80567;SDS011;69922;45.656;25.586;2023-11-19T05:20:45;3.50;;;2.80;;
80567;SDS011;69922;45.656;25.586;2023-11-19T05:21:51;4.50;;;3.20;;
80567;SDS011;69922;45.656;25.586;2023-11-19T05:22:58;3.70;;;2.90;;
80567;SDS011;69922;45.656;25.586;2023-11-19T05:24:05;4.10;;;2.80;;
80567;SDS011;69922;45.656;25.586;2023-11-19T05:25:11;4.10;;;3.20;;
80567;SDS011;69922;45.656;25.586;2023-11-19T05:26:19;4.50;;;3.50;;
80567;SDS011;69922;45.656;25.586;2023-11-19T05:27:26;4.40;;;3.50;;
80567;SDS011;69922;45.656;25.586;2023-11-19T05:28:32;4.40;;;3.00;;
80567;SDS011;69922;45.656;25.586;2023-11-19T05:29:39;6.30;;;3.50;;
80567;SDS011;69922;45.656;25.586;2023-11-19T05:30:46;6.30;;;3.50;;
80567;SDS011;69922;45.656;25.586;2023-11-19T05:31:53;5.00;;;3.20;;
80567;SDS011;69922;45.656;25.586;2023-11-19T05:32:59;4.00;;;2.80;;
80567;SDS011;69922;45.656;25.586;2023-11-19T05:34:06;6.50;;;3.60;;
80567;SDS011;69922;45.656;25.586;2023-11-19T05:35:13;4.70;;;3.70;;
80567;SDS011;69922;45.656;25.586;2023-11-19T05:36:19;5.90;;;3.60;;
80567;SDS011;69922;45.656;25.586;2023-11-19T05:37:25;3.70;;;3.30;;
80567;SDS011;69922;45.656;25.586;2023-11-19T05:38:31;3.70;;;3.10;;
80567;SDS011;69922;45.656;25.586;2023-11-19T05:39:37;4.50;;;3.30;;
80567;SDS011;69922;45.656;25.586;2023-11-19T05:40:44;4.40;;;3.70;;
80567;SDS011;69922;45.656;25.586;2023-11-19T05:41:52;5.10;;;3.80;;
80567;SDS011;69922;45.656;25.586;2023-11-19T05:42:59;6.30;;;4.10;;
80567;SDS011;69922;45.656;25.586;2023-11-19T05:44:05;5.10;;;3.90;;
80567;SDS011;69922;45.656;25.586;2023-11-19T05:45:11;5.30;;;3.50;;
80567;SDS011;69922;45.656;25.586;2023-11-19T05:46:18;4.40;;;3.60;;
80567;SDS011;69922;45.656;25.586;2023-11-19T05:47:25;4.50;;;3.60;;
80567;SDS011;69922;45.656;25.586;2023-11-19T05:48:32;4.30;;;3.30;;
80567;SDS011;69922;45.656;25.586;2023-11-19T05:49:38;3.90;;;3.30;;
80567;SDS011;69922;45.656;25.586;2023-11-19T05:50:45;5.20;;;3.70;;
80567;SDS011;69922;45.656;25.586;2023-11-19T05:51:53;4.30;;;3.70;;
80567;SDS011;69922;45.656;25.586;2023-11-19T05:53:00;5.60;;;4.20;;
80567;SDS011;69922;45.656;25.586;2023-11-19T05:54:09;5.60;;;3.80;;
80567;SDS011;69922;45.656;25.586;2023-11-19T05:55:17;5.40;;;4.20;;
80567;SDS011;69922;45.656;25.586;2023-11-19T05:56:24;5.30;;;4.50;;
80567;SDS011;69922;45.656;25.586;2023-11-19T05:57:36;5.30;;;3.90;;
80567;SDS011;69922;45.656;25.586;2023-11-19T05:58:46;4.60;;;3.90;;
80567;SDS011;69922;45.656;25.586;2023-11-19T05:59:53;6.10;;;4.10;;
80567;SDS011;69922;45.656;25.586;2023-11-19T06:01:00;5.60;;;4.30;;
80567;SDS011;69922;45.656;25.586;2023-11-19T06:02:07;5.80;;;4.50;;
80567;SDS011;69922;45.656;25.586;2023-11-19T06:03:13;5.30;;;4.00;;
80567;SDS011;69922;45.656;25.586;2023-11-19T06:04:20;5.60;;;4.30;;
80567;SDS011;69922;45.656;25.586;2023-11-19T06:05:26;4.50;;;3.30;;
80567;SDS011;69922;45.656;25.586;2023-11-19T06:06:32;4.40;;;3.30;;
80567;SDS011;69922;45.656;25.586;2023-11-19T06:07:38;4.70;;;3.80;;
80567;SDS011;69922;45.656;25.586;2023-11-19T06:08:45;4.30;;;3.50;;
80567;SDS011;69922;45.656;25.586;2023-11-19T06:09:52;4.80;;;3.90;;
80567;SDS011;69922;45.656;25.586;2023-11-19T06:10:58;5.40;;;4.10;;
80567;SDS011;69922;45.656;25.586;2023-11-19T06:12:06;4.40;;;3.40;;
80567;SDS011;69922;45.656;25.586;2023-11-19T06:13:13;5.50;;;4.00;;
80567;SDS011;69922;45.656;25.586;2023-11-19T06:14:20;5.10;;;4.00;;
80567;SDS011;69922;45.656;25.586;2023-11-19T06:15:28;4.50;;;3.50;;
80567;SDS011;69922;45.656;25.586;2023-11-19T06:16:36;4.10;;;3.60;;
80567;SDS011;69922;45.656;25.586;2023-11-19T06:17:44;5.60;;;4.40;;
80567;SDS011;69922;45.656;25.586;2023-11-19T06:18:51;5.40;;;3.90;;
80567;SDS011;69922;45.656;25.586;2023-11-19T06:19:58;3.70;;;3.00;;
80567;SDS011;69922;45.656;25.586;2023-11-19T06:21:05;4.40;;;3.60;;
80567;SDS011;69922;45.656;25.586;2023-11-19T06:22:12;4.30;;;3.70;;
80567;SDS011;69922;45.656;25.586;2023-11-19T06:23:18;4.10;;;3.30;;
80567;SDS011;69922;45.656;25.586;2023-11-19T06:24:26;5.10;;;3.70;;
80567;SDS011;69922;45.656;25.586;2023-11-19T06:25:32;6.20;;;4.40;;
80567;SDS011;69922;45.656;25.586;2023-11-19T06:26:39;7.60;;;5.00;;
80567;SDS011;69922;45.656;25.586;2023-11-19T06:27:46;8.30;;;5.30;;
80567;SDS011;69922;45.656;25.586;2023-11-19T06:28:53;7.50;;;5.30;;
80567;SDS011;69922;45.656;25.586;2023-11-19T06:29:59;6.80;;;4.10;;
80567;SDS011;69922;45.656;25.586;2023-11-19T06:31:06;8.80;;;5.40;;
80567;SDS011;69922;45.656;25.586;2023-11-19T06:32:12;6.30;;;4.30;;
80567;SDS011;69922;45.656;25.586;2023-11-19T06:33:18;9.50;;;5.20;;
80567;SDS011;69922;45.656;25.586;2023-11-19T06:34:25;7.70;;;5.20;;
80567;SDS011;69922;45.656;25.586;2023-11-19T06:35:31;7.30;;;5.00;;
80567;SDS011;69922;45.656;25.586;2023-11-19T06:36:41;8.20;;;5.40;;
80567;SDS011;69922;45.656;25.586;2023-11-19T06:38:55;6.50;;;4.70;;
80567;SDS011;69922;45.656;25.586;2023-11-19T06:40:02;6.60;;;4.90;;
80567;SDS011;69922;45.656;25.586;2023-11-19T06:41:09;6.70;;;4.80;;
80567;SDS011;69922;45.656;25.586;2023-11-19T06:42:15;6.90;;;4.90;;